Time;durP1;ratioP1;P1;durP2;ratioP2;P2;SDS_P1;SDS_P2;PMS_P1;PMS_P2;Temp;Humidity;BMP_temperature;BMP_pressure;BME280_temperature;BME280_humidity;BME280_pressure;Samples;Min_cycle;Max_cycle;Signal;HPM_P1;HPM_P2
2022/07/16 00:03:35;;;;;;;7.45;2.10;;;;;;;16.82;82.04;102022.81;5176879;28;20046;-75
2022/07/16 00:06:06;;;;;;;3.80;2.53;;;;;;;16.80;81.82;102030.91;5176122;28;20038;-75
2022/07/16 00:08:38;;;;;;;4.38;2.00;;;;;;;16.85;80.15;102023.38;5175530;28;20036;-75
2022/07/16 00:11:09;;;;;;;3.67;2.22;;;;;;;16.86;80.86;102025.06;5176609;28;20015;-75
2022/07/16 00:13:40;;;;;;;4.38;1.88;;;;;;;16.80;79.79;102024.78;5176398;28;20049;-75
2022/07/16 00:16:12;;;;;;;5.40;2.35;;;;;;;16.85;79.91;102033.94;5176579;28;20083;-75
2022/07/16 00:21:34;;;;;;;4.55;2.38;;;;;;;16.68;80.80;102032.84;5178243;28;20051;-75
2022/07/16 00:24:07;;;;;;;6.20;2.28;;;;;;;16.68;79.89;102032.00;5174368;28;20023;-75
2022/07/16 00:26:38;;;;;;;;;;;;;;;17.34;74.79;102039.94;5167644;28;20034;-75
2022/07/16 00:29:10;;;;;;;6.30;2.17;;;;;;;16.70;80.42;102041.47;5176335;28;19910;-75
2022/07/16 00:31:42;;;;;;;4.87;2.37;;;;;;;16.73;80.04;102043.00;5175765;28;20097;-75
2022/07/16 00:34:14;;;;;;;3.25;2.20;;;;;;;16.80;80.37;102045.97;5175481;28;20313;-75
2022/07/16 00:36:46;;;;;;;5.05;2.20;;;;;;;16.71;80.99;102042.31;5176263;28;20039;-75
2022/07/16 00:39:18;;;;;;;6.18;2.25;;;;;;;16.73;81.41;102040.34;5175926;28;20491;-75
2022/07/16 00:41:49;;;;;;;5.95;2.45;;;;;;;16.82;81.18;102033.41;5174278;28;20082;-75
2022/07/16 00:44:21;;;;;;;8.15;2.17;;;;;;;16.77;80.56;102039.97;5175991;28;20472;-75
2022/07/16 00:46:52;;;;;;;10.32;2.17;;;;;;;16.77;81.54;102032.03;5176033;28;20034;-75
2022/07/16 00:49:23;;;;;;;7.55;2.35;;;;;;;16.76;81.13;102030.34;5175915;28;20460;-75
2022/07/16 00:51:55;;;;;;;3.40;2.30;;;;;;;16.77;81.00;102034.66;5175099;28;20043;-75
2022/07/16 00:54:26;;;;;;;4.05;2.42;;;;;;;16.85;81.43;102033.94;5175882;28;20072;-75
2022/07/16 00:56:57;;;;;;;5.55;2.30;;;;;;;16.92;81.55;102036.88;5174729;28;20161;-75
2022/07/16 00:59:29;;;;;;;5.30;2.33;;;;;;;16.89;82.19;102037.16;5163711;28;20030;-75
2022/07/16 01:02:00;;;;;;;5.22;2.70;;;;;;;16.97;81.77;102037.28;5175694;28;20030;-75
2022/07/16 01:04:33;;;;;;;5.82;2.72;;;;;;;17.00;81.10;102037.00;5175337;28;20085;-74
2022/07/16 01:07:05;;;;;;;4.57;2.40;;;;;;;17.02;80.84;102033.25;5175495;28;20038;-75
2022/07/16 01:09:37;;;;;;;5.18;2.30;;;;;;;16.98;81.33;102029.19;5174691;28;20070;-75
2022/07/16 01:12:08;;;;;;;4.28;2.58;;;;;;;17.01;82.60;102030.75;5175849;28;20105;-74
2022/07/16 01:14:40;;;;;;;4.20;2.45;;;;;;;17.00;82.83;102029.06;5174557;28;20118;-75
2022/07/16 01:17:12;;;;;;;4.07;2.50;;;;;;;16.99;82.79;102027.38;5174502;28;20030;-75
2022/07/16 01:19:43;;;;;;;5.32;2.75;;;;;;;17.05;81.89;102023.31;5175309;28;20031;-75
2022/07/16 01:22:20;;;;;;;4.97;2.33;;;;;;;17.13;81.68;102015.53;5175129;28;20085;-74
2022/07/16 01:24:53;;;;;;;7.95;2.90;;;;;;;17.03;82.33;102015.53;5167818;28;20026;-75
2022/07/16 01:27:24;;;;;;;6.13;2.40;;;;;;;17.07;82.19;102019.56;5173838;28;20081;-75
2022/07/16 01:29:56;;;;;;;6.65;2.47;;;;;;;17.07;81.40;102014.25;5174278;28;20488;-75
2022/07/16 01:32:27;;;;;;;3.65;2.00;;;;;;;17.05;81.02;102021.53;5174901;28;20025;-75
2022/07/16 01:34:58;;;;;;;4.85;2.65;;;;;;;17.07;80.74;102029.31;5164760;28;20097;-75
2022/07/16 01:37:30;;;;;;;5.38;2.35;;;;;;;17.07;80.76;102024.84;5164369;28;20034;-75
2022/07/16 01:40:02;;;;;;;4.03;2.28;;;;;;;17.10;79.57;102026.38;5164570;28;20033;-74
2022/07/16 01:42:33;;;;;;;6.25;2.28;;;;;;;17.07;80.41;102026.66;5173667;28;20122;-75
2022/07/16 01:45:05;;;;;;;5.15;2.03;;;;;;;17.00;81.20;102031.69;5174883;28;20214;-75
2022/07/16 01:47:36;;;;;;;5.47;2.35;;;;;;;17.01;81.21;102034.22;5174077;28;20043;-75
2022/07/16 01:50:08;;;;;;;4.88;2.42;;;;;;;17.00;80.48;102031.69;5174732;28;20011;-74
2022/07/16 01:52:39;;;;;;;4.53;2.53;;;;;;;17.00;79.61;102037.00;5173979;28;20085;-75
2022/07/16 01:55:11;;;;;;;5.78;2.30;;;;;;;17.00;79.28;102040.47;5174896;28;20468;-75
2022/07/16 01:57:42;;;;;;;5.78;3.03;;;;;;;16.93;79.76;102034.09;5174626;28;20046;-75
2022/07/16 02:00:13;;;;;;;5.43;2.60;;;;;;;16.95;79.47;102028.66;5173943;28;20023;-75
2022/07/16 02:02:44;;;;;;;4.90;2.70;;;;;;;16.92;79.52;102019.19;5173840;28;20035;-75
2022/07/16 02:05:16;;;;;;;4.53;2.40;;;;;;;16.96;79.42;102032.97;5174343;28;20071;-75
2022/07/16 02:07:47;;;;;;;5.07;2.80;;;;;;;16.95;79.42;102026.00;5174327;28;20026;-75
2022/07/16 02:10:19;;;;;;;4.32;2.65;;;;;;;16.95;79.02;102020.72;5162909;28;20031;-75
2022/07/16 02:12:50;;;;;;;4.07;2.75;;;;;;;16.94;80.32;102021.69;5165231;28;20120;-75
2022/07/16 02:15:22;;;;;;;7.38;3.03;;;;;;;16.94;80.15;102021.69;5174224;28;20220;-74
2022/07/16 02:17:53;;;;;;;5.93;3.10;;;;;;;16.88;80.78;102012.50;5174567;28;20023;-74
2022/07/16 02:20:24;;;;;;;8.32;3.20;;;;;;;16.95;80.35;102018.06;5172700;28;20023;-74
2022/07/16 02:22:56;;;;;;;5.45;3.28;;;;;;;16.92;81.26;102013.06;5162796;28;20081;-74
2022/07/16 02:25:27;;;;;;;5.03;2.92;;;;;;;16.95;80.57;102013.59;5174241;28;20030;-74
2022/07/16 02:28:07;;;;;;;5.55;3.03;;;;;;;16.97;80.28;102016.09;5173977;28;20033;-74
2022/07/16 02:30:47;;;;;;;7.03;3.30;;;;;;;17.02;81.14;102020.00;5174352;28;20050;-74
2022/07/16 02:33:20;;;;;;;4.43;2.85;;;;;;;16.88;80.61;102001.09;5173672;28;20092;-74
2022/07/16 02:35:51;;;;;;;5.82;3.00;;;;;;;17.07;80.90;102014.25;5173510;28;20125;-74
2022/07/16 02:38:22;;;;;;;9.05;3.17;;;;;;;16.97;80.36;102011.66;5173166;28;20110;-74
2022/07/16 02:40:53;;;;;;;3.97;2.60;;;;;;;17.07;80.65;102011.63;5174310;28;21511;-74
2022/07/16 02:43:25;;;;;;;6.28;3.22;;;;;;;17.00;81.05;102015.81;5174271;28;20134;-74
2022/07/16 02:45:56;;;;;;;6.68;3.28;;;;;;;16.90;80.86;102015.03;5173736;28;20026;-74
2022/07/16 02:48:27;;;;;;;7.97;3.63;;;;;;;16.92;81.26;102008.59;5173151;28;20052;-74
2022/07/16 02:50:59;;;;;;;6.65;3.20;;;;;;;16.93;80.89;102001.47;5164107;28;20472;-74
2022/07/16 02:53:30;;;;;;;8.43;3.90;;;;;;;16.98;80.18;102007.19;5173644;28;20049;-74
2022/07/16 02:56:01;;;;;;;5.80;3.20;;;;;;;17.01;79.94;102006.91;5177616;28;20033;-74
2022/07/16 02:58:32;;;;;;;8.15;3.53;;;;;;;16.96;80.51;102014.44;5168813;28;20062;-74
2022/07/16 03:01:04;;;;;;;5.63;3.30;;;;;;;16.91;80.07;102006.94;5177776;28;20026;-74
2022/07/16 03:03:35;;;;;;;5.47;3.53;;;;;;;16.96;80.13;102009.97;5177210;28;20403;-75
2022/07/16 03:06:07;;;;;;;5.65;3.67;;;;;;;16.93;81.13;102020.88;5177576;28;20026;-74
2022/07/16 03:08:38;;;;;;;5.82;3.38;;;;;;;16.90;81.23;102012.38;5177597;28;20102;-74
2022/07/16 03:11:09;;;;;;;7.55;3.78;;;;;;;16.87;81.84;102021.44;5176509;28;20030;-74
2022/07/16 03:13:41;;;;;;;6.40;3.80;;;;;;;16.89;82.01;102022.09;5177123;28;20453;-74
2022/07/16 03:16:12;;;;;;;8.27;3.55;;;;;;;16.86;81.07;102018.91;5176387;28;20113;-74
2022/07/16 03:18:43;;;;;;;6.28;3.90;;;;;;;16.80;82.18;102017.69;5177576;28;20041;-75
2022/07/16 03:21:15;;;;;;;7.18;3.30;;;;;;;16.85;81.50;102020.72;5177561;28;20018;-74
2022/07/16 03:23:46;;;;;;;6.30;3.40;;;;;;;16.90;81.25;102020.31;5177849;28;20474;-74
2022/07/16 03:26:17;;;;;;;5.50;3.88;;;;;;;16.88;81.12;102019.59;5164437;28;20035;-74
2022/07/16 03:28:48;;;;;;;8.37;3.70;;;;;;;16.89;81.15;102023.91;5176487;28;20042;-74
2022/07/16 03:31:20;;;;;;;6.75;4.20;;;;;;;16.88;81.59;102025.75;5177694;28;20282;-74
2022/07/16 03:33:51;;;;;;;6.10;3.50;;;;;;;16.92;81.25;102026.28;5176525;28;20079;-74
2022/07/16 03:36:22;;;;;;;5.88;4.05;;;;;;;16.88;81.63;102032.84;5166009;28;20465;-74
2022/07/16 03:41:36;;;;;;;5.40;3.15;;;;;;;16.82;82.77;102038.69;5176566;28;20048;-74
2022/07/16 03:44:08;;;;;;;5.75;3.95;;;;;;;16.83;82.79;102035.09;5175469;28;20046;-74
2022/07/16 03:46:40;;;;;;;7.57;4.13;;;;;;;16.85;82.80;102038.41;5176391;28;20104;-74
2022/07/16 03:49:11;;;;;;;6.78;4.13;;;;;;;16.86;83.30;102035.66;5176124;28;20018;-74
2022/07/16 03:51:42;;;;;;;9.10;5.07;;;;;;;16.84;84.50;102042.06;5177180;28;20027;-74
2022/07/16 03:54:14;;;;;;;5.20;4.07;;;;;;;16.89;83.82;102045.09;5176995;28;20025;-74
2022/07/16 03:56:45;;;;;;;7.82;4.55;;;;;;;16.86;85.33;102051.53;5177204;28;20027;-74
2022/07/16 03:59:16;;;;;;;5.55;3.70;;;;;;;16.93;85.61;102047.34;5174532;28;20069;-74
2022/07/16 04:01:48;;;;;;;13.10;4.85;;;;;;;16.94;86.59;102049.00;5177079;28;20034;-74
2022/07/16 04:04:19;;;;;;;6.80;4.10;;;;;;;16.97;86.32;102047.88;5176679;28;20066;-74
2022/07/16 04:06:50;;;;;;;7.65;4.05;;;;;;;16.99;87.27;102045.91;5175578;28;20023;-74
2022/07/16 04:09:21;;;;;;;5.72;4.50;;;;;;;16.98;88.30;102054.84;5176674;28;20022;-74
2022/07/16 04:11:53;;;;;;;6.93;4.28;;;;;;;16.97;88.84;102054.03;5176423;28;20452;-74
2022/07/16 04:14:25;;;;;;;5.50;4.60;;;;;;;16.95;91.29;102061.25;5176651;28;20058;-74
2022/07/16 04:16:56;;;;;;;5.63;4.65;;;;;;;16.97;92.02;102064.59;5174820;28;20117;-74
2022/07/16 04:19:27;;;;;;;6.20;4.30;;;;;;;17.05;91.93;102065.69;5169552;28;20065;-74
2022/07/16 04:21:59;;;;;;;9.77;5.32;;;;;;;17.05;92.15;102063.03;5176434;28;20023;-74
2022/07/16 04:24:30;;;;;;;7.68;4.53;;;;;;;17.01;94.03;102076.59;5175588;28;20046;-74
2022/07/16 04:27:01;;;;;;;8.07;4.75;;;;;;;17.02;95.11;102061.53;5176677;28;20061;-76
2022/07/16 04:29:33;;;;;;;6.63;4.38;;;;;;;17.05;94.30;102060.38;5176267;28;20035;-74
2022/07/16 04:32:05;;;;;;;8.10;5.10;;;;;;;17.06;96.03;102067.38;5175008;28;20033;-76
2022/07/16 04:34:37;;;;;;;7.10;4.75;;;;;;;16.98;98.04;102070.72;5168079;28;20101;-74
2022/07/16 04:37:08;;;;;;;11.65;5.07;;;;;;;17.00;97.87;102068.75;5176403;28;20030;-74
2022/07/16 04:39:39;;;;;;;8.70;5.18;;;;;;;17.08;97.77;102076.81;5165405;28;20272;-74
2022/07/16 04:42:10;;;;;;;8.52;5.05;;;;;;;17.08;98.77;102073.34;5175836;28;20400;-74
2022/07/16 04:44:42;;;;;;;7.72;4.88;;;;;;;17.15;98.41;102069.97;5169198;28;20380;-74
2022/07/16 04:47:13;;;;;;;6.10;4.93;;;;;;;17.07;100.00;102069.03;5175915;28;20030;-74
2022/07/16 04:49:44;;;;;;;7.20;4.75;;;;;;;17.08;100.00;102074.19;5173784;28;20034;-74
2022/07/16 04:52:16;;;;;;;7.82;5.18;;;;;;;17.15;100.00;102082.38;5176075;28;20480;-74
2022/07/16 04:54:47;;;;;;;8.32;4.60;;;;;;;17.18;100.00;102085.59;5175959;28;20134;-74
2022/07/16 04:57:18;;;;;;;6.22;4.57;;;;;;;17.20;100.00;102077.53;5174862;28;20496;-74
2022/07/16 04:59:51;;;;;;;6.47;4.75;;;;;;;17.23;100.00;102077.22;5175461;28;20038;-74
2022/07/16 05:05:11;;;;;;;8.57;4.35;;;;;;;17.24;100.00;102092.97;5175169;28;20456;-74
2022/07/16 05:07:43;;;;;;;8.18;4.13;;;;;;;17.32;100.00;102079.00;5174953;28;20027;-74
2022/07/16 05:10:15;;;;;;;5.72;3.70;;;;;;;17.31;100.00;102084.44;5175573;28;20388;-74
2022/07/16 05:12:47;;;;;;;6.28;4.03;;;;;;;17.40;100.00;102094.19;5175195;28;20109;-74
2022/07/16 05:15:19;;;;;;;6.07;3.80;;;;;;;17.43;100.00;102096.56;5175523;28;20023;-74
2022/07/16 05:17:51;;;;;;;8.45;4.00;;;;;;;17.46;100.00;102101.53;5174448;28;20050;-74
2022/07/16 05:20:22;;;;;;;6.60;3.90;;;;;;;17.47;100.00;102092.63;5174562;28;20097;-74
2022/07/16 05:22:54;;;;;;;7.68;3.95;;;;;;;17.52;100.00;102106.28;5174027;28;20480;-74
2022/07/16 05:25:26;;;;;;;8.50;3.50;;;;;;;17.57;100.00;102106.66;5175638;28;20487;-74
2022/07/16 05:27:57;;;;;;;6.53;3.83;;;;;;;17.60;100.00;102111.69;5174282;28;20027;-74
2022/07/16 05:30:28;;;;;;;7.35;4.18;;;;;;;17.62;100.00;102104.44;5175353;28;20030;-75
2022/07/16 05:33:00;;;;;;;7.40;3.60;;;;;;;17.68;100.00;102114.44;5163010;28;20082;-74
2022/07/16 05:35:31;;;;;;;7.55;3.55;;;;;;;17.68;100.00;102105.66;5175363;28;20031;-74
2022/07/16 05:38:03;;;;;;;7.25;4.00;;;;;;;17.79;100.00;102117.91;5174128;28;20284;-74
2022/07/16 05:40:34;;;;;;;9.02;4.32;;;;;;;17.82;100.00;102110.50;5174352;28;20031;-75
2022/07/16 05:43:06;;;;;;;8.25;3.88;;;;;;;17.82;100.00;102109.69;5175138;28;20038;-74
2022/07/16 05:45:37;;;;;;;7.07;3.85;;;;;;;17.90;100.00;102120.38;5174557;28;20029;-74
2022/07/16 05:48:09;;;;;;;6.38;3.90;;;;;;;18.03;100.00;102126.16;5164335;28;20037;-74
2022/07/16 05:50:40;;;;;;;6.47;3.65;;;;;;;18.11;100.00;102122.78;5175099;28;20375;-74
2022/07/16 05:53:11;;;;;;;6.55;3.70;;;;;;;18.11;100.00;102130.75;5175523;28;20034;-75
2022/07/16 05:55:43;;;;;;;6.18;3.05;;;;;;;18.22;100.00;102120.78;5174510;28;20072;-75
2022/07/16 05:58:14;;;;;;;7.05;3.63;;;;;;;18.33;100.00;102122.34;5173739;28;20027;-75
2022/07/16 06:00:45;;;;;;;6.07;3.33;;;;;;;18.39;100.00;102124.41;5174640;28;20490;-75
2022/07/16 06:03:17;;;;;;;7.07;2.83;;;;;;;18.44;100.00;102134.56;5168129;28;20042;-75
2022/07/16 06:05:48;;;;;;;4.78;2.60;;;;;;;18.44;100.00;102135.41;5175431;28;20487;-75
2022/07/16 06:08:19;;;;;;;5.35;2.45;;;;;;;18.47;100.00;102147.56;5174458;28;20387;-75
2022/07/16 06:10:50;;;;;;;4.78;2.28;;;;;;;18.59;100.00;102143.69;5173982;28;20105;-75
2022/07/16 06:13:22;;;;;;;3.65;2.28;;;;;;;18.67;100.00;102158.84;5172653;28;20039;-75
2022/07/16 06:15:53;;;;;;;3.93;1.90;;;;;;;18.74;100.00;102151.16;5174504;28;20034;-75
2022/07/16 06:18:24;;;;;;;6.50;2.20;;;;;;;18.86;100.00;102152.59;5174388;28;20052;-75
2022/07/16 06:20:56;;;;;;;5.72;1.80;;;;;;;18.98;100.00;102158.50;5161905;28;20031;-75
2022/07/16 06:23:28;;;;;;;5.00;1.93;;;;;;;19.07;100.00;102147.81;5174369;28;20034;-75
2022/07/16 06:25:59;;;;;;;4.97;1.70;;;;;;;19.25;100.00;102160.22;5174642;28;20018;-75
2022/07/16 06:28:30;;;;;;;5.10;1.52;;;;;;;19.37;100.00;102161.63;5174080;28;20030;-74
2022/07/16 06:31:02;;;;;;;5.33;1.40;;;;;;;19.39;100.00;102170.28;5172915;28;20015;-75
2022/07/16 06:33:33;;;;;;;5.32;1.70;;;;;;;19.44;100.00;102170.66;5173973;28;20408;-75
2022/07/16 06:36:05;;;;;;;3.43;1.40;;;;;;;19.49;100.00;102176.34;5174406;28;20090;-75
2022/07/16 06:38:36;;;;;;;3.63;1.30;;;;;;;19.43;100.00;102169.84;5173326;28;20027;-75
2022/07/16 06:41:08;;;;;;;3.80;1.30;;;;;;;19.39;99.59;102172.94;5174383;28;20022;-75
2022/07/16 06:43:39;;;;;;;6.10;1.33;;;;;;;19.50;100.00;102177.16;5174096;28;20039;-74
2022/07/16 06:46:10;;;;;;;4.28;1.45;;;;;;;19.64;100.00;102182.78;5165850;28;20023;-75
2022/07/16 06:48:42;;;;;;;3.80;1.60;;;;;;;19.65;99.09;102191.56;5172275;28;20027;-74
2022/07/16 06:51:13;;;;;;;4.83;1.47;;;;;;;19.87;96.17;102187.56;5174289;28;20019;-75
2022/07/16 06:53:44;;;;;;;4.00;1.57;;;;;;;19.82;90.41;102188.03;5174031;28;20078;-75
2022/07/16 06:56:16;;;;;;;3.97;1.23;;;;;;;19.80;85.51;102186.50;5173280;28;20126;-75
2022/07/16 06:58:47;;;;;;;2.97;1.20;;;;;;;19.87;86.17;102187.56;5173657;28;20027;-74
2022/07/16 07:01:18;;;;;;;3.90;1.30;;;;;;;19.88;85.06;102195.34;5174054;28;20359;-74
2022/07/16 07:03:50;;;;;;;6.83;1.27;;;;;;;19.97;82.80;102209.56;5172754;28;20042;-75
2022/07/16 07:06:21;;;;;;;3.08;0.85;;;;;;;19.99;84.19;102209.38;5174023;28;20565;-74
2022/07/16 07:08:53;;;;;;;3.90;1.20;;;;;;;20.13;82.59;102216.78;5164285;28;20034;-75
2022/07/16 07:11:24;;;;;;;5.40;1.13;;;;;;;20.21;82.88;102216.81;5173856;28;20022;-75
2022/07/16 07:13:55;;;;;;;2.63;1.00;;;;;;;20.21;81.42;102211.47;5173161;28;20146;-75
2022/07/16 07:16:27;;;;;;;3.40;1.23;;;;;;;20.34;73.87;102217.22;5160951;28;20497;-75
2022/07/16 07:18:58;;;;;;;4.27;1.00;;;;;;;20.49;73.20;102229.88;5173069;28;20081;-75
2022/07/16 07:21:29;;;;;;;3.97;1.17;;;;;;;20.77;69.70;102225.16;5173130;28;20049;-75
2022/07/16 07:24:00;;;;;;;6.50;1.10;;;;;;;20.73;64.51;102223.84;5173863;28;20031;-74
2022/07/16 07:26:32;;;;;;;4.93;1.10;;;;;;;20.78;61.08;102225.00;5173580;28;20035;-74
2022/07/16 07:29:05;;;;;;;6.40;0.90;;;;;;;20.78;63.04;102237.47;5173482;28;20050;-75
2022/07/16 07:31:36;;;;;;;2.25;0.82;;;;;;;20.80;61.70;102231.00;5174135;28;20046;-74
2022/07/16 07:34:07;;;;;;;3.40;1.10;;;;;;;20.79;63.82;102226.66;5173993;28;20038;-74
2022/07/16 07:36:38;;;;;;;5.60;1.50;;;;;;;21.00;64.59;102222.72;5171969;28;20035;-74
2022/07/16 07:39:10;;;;;;;4.60;0.93;;;;;;;20.98;62.17;102227.34;5173496;28;20485;-74
2022/07/16 07:41:41;;;;;;;3.87;0.87;;;;;;;21.20;62.96;102232.03;5176346;28;20033;-74
2022/07/16 07:44:13;;;;;;;2.70;1.00;;;;;;;21.26;60.96;102233.22;5177249;28;20035;-74
2022/07/16 07:46:44;;;;;;;5.10;1.00;;;;;;;21.33;61.80;102239.59;5176674;28;20396;-74
2022/07/16 07:49:15;;;;;;;2.50;0.90;;;;;;;21.43;60.47;102242.88;5167319;28;20054;-74
2022/07/16 07:51:46;;;;;;;4.43;1.17;;;;;;;21.32;58.89;102237.88;5177292;28;20685;-74
2022/07/16 07:54:18;;;;;;;5.60;1.40;;;;;;;21.45;59.62;102246.22;5175492;28;20031;-74
2022/07/16 07:56:50;;;;;;;1.50;0.80;;;;;;;21.40;59.29;102247.72;5177222;28;20026;-74
2022/07/16 07:59:21;;;;;;;2.77;1.20;;;;;;;21.42;61.37;102243.06;5176793;28;20387;-74
2022/07/16 08:01:53;;;;;;;3.50;0.80;;;;;;;21.58;60.85;102251.88;5177101;28;20512;-74
2022/07/16 08:04:24;;;;;;;2.50;1.00;;;;;;;21.74;60.85;102264.34;5176941;28;20387;-74
2022/07/16 08:06:55;;;;;;;2.83;0.90;;;;;;;21.77;56.33;102257.84;5176759;28;20034;-73
2022/07/16 08:09:26;;;;;;;7.40;1.30;;;;;;;21.80;56.45;102263.69;5175775;28;20132;-73
2022/07/16 08:11:58;;;;;;;4.47;1.13;;;;;;;21.83;58.09;102259.84;5176014;28;20031;-73
2022/07/16 08:14:29;;;;;;;5.37;1.10;;;;;;;21.88;57.99;102262.84;5176982;28;20105;-73
2022/07/16 08:17:01;;;;;;;3.93;1.33;;;;;;;21.85;56.15;102263.16;5175013;28;20396;-73
2022/07/16 08:19:33;;;;;;;4.03;1.10;;;;;;;21.85;55.91;102271.19;5175540;28;20439;-73
2022/07/16 08:22:04;;;;;;;6.43;1.42;;;;;;;21.91;56.99;102262.50;5176546;28;20027;-73
2022/07/16 08:27:25;;;;;;;3.10;1.10;;;;;;;22.03;53.21;102273.66;5175344;28;20039;-73
2022/07/16 08:29:57;;;;;;;3.07;1.10;;;;;;;22.40;54.06;102281.06;5176338;28;20373;-73
2022/07/16 08:32:28;;;;;;;2.97;1.10;;;;;;;22.46;55.09;102284.88;5164925;28;20047;-73
2022/07/16 08:34:59;;;;;;;2.20;0.90;;;;;;;22.49;53.09;102288.03;5164562;28;20030;-73
2022/07/16 08:37:41;;;;;;;4.10;1.30;;;;;;;22.72;54.52;102287.25;5175513;28;20039;-73
2022/07/16 08:40:18;;;;;;;6.68;1.58;;;;;;;22.78;54.07;102292.72;5176204;28;20019;-74
2022/07/16 08:42:50;;;;;;;4.18;1.20;;;;;;;22.80;53.33;102293.38;5175227;28;20079;-73
2022/07/16 08:45:22;;;;;;;2.27;1.03;;;;;;;22.90;50.37;102308.38;5175402;28;20106;-74
2022/07/16 08:47:54;;;;;;;3.00;1.15;;;;;;;23.00;50.84;102296.47;5175960;28;20593;-74
2022/07/16 08:50:25;;;;;;;2.07;0.73;;;;;;;22.80;49.05;102303.22;5176800;28;20031;-74
2022/07/16 08:52:57;;;;;;;2.70;1.10;;;;;;;22.66;48.11;102304.00;5175623;28;20332;-73
2022/07/16 08:55:29;;;;;;;2.20;0.98;;;;;;;22.68;48.81;102302.78;5175731;28;20054;-73
2022/07/16 08:58:01;;;;;;;4.88;1.50;;;;;;;22.68;50.58;102305.47;5175579;28;20025;-74
2022/07/16 09:00:33;;;;;;;3.33;1.20;;;;;;;22.97;50.85;102309.38;5173973;28;20035;-74
2022/07/16 09:03:04;;;;;;;2.90;0.95;;;;;;;22.91;48.53;102310.88;5175213;28;20038;-74
2022/07/16 09:05:35;;;;;;;1.90;1.00;;;;;;;22.76;47.64;102323.28;5175115;28;20026;-74
2022/07/16 09:08:07;;;;;;;2.77;1.00;;;;;;;22.79;47.54;102323.78;5175471;28;20384;-74
2022/07/16 09:10:38;;;;;;;4.70;1.50;;;;;;;22.73;47.57;102323.63;5174885;28;20027;-74
2022/07/16 09:13:10;;;;;;;3.27;1.30;;;;;;;22.84;46.01;102309.88;5175486;28;20066;-75
2022/07/16 09:15:44;;;;;;;3.57;1.03;;;;;;;22.86;47.54;102302.53;5173326;28;20085;-74
2022/07/16 09:18:16;;;;;;;3.38;1.20;;;;;;;22.96;45.79;102321.91;5167494;28;20266;-75
2022/07/16 09:21:02;;;;;;;4.03;1.15;;;;;;;23.00;46.78;102319.72;5175425;28;20027;-75
2022/07/16 09:23:36;;;;;;;3.08;1.00;;;;;;;23.02;46.80;102331.03;5175524;28;20038;-75
2022/07/16 09:26:11;;;;;;;4.40;1.27;;;;;;;22.97;46.46;102334.25;5174170;28;20089;-75
2022/07/16 09:28:50;;;;;;;3.13;1.13;;;;;;;23.32;44.82;102329.34;5174769;28;20053;-74
2022/07/16 09:31:53;;;;;;;1.90;0.77;;;;;;;23.74;44.14;102323.50;5174509;28;20030;-74
2022/07/16 09:34:25;;;;;;;2.10;1.00;;;;;;;23.55;43.93;102323.97;5162600;28;20034;-75
2022/07/16 09:36:57;;;;;;;3.43;1.00;;;;;;;23.67;43.07;102325.25;5175158;28;20435;-75
2022/07/16 09:39:29;;;;;;;;;;;;;;;24.38;44.05;102325.69;5175792;28;20022;-75
2022/07/16 09:42:02;;;;;;;3.38;1.25;;;;;;;24.03;46.53;102333.44;5168488;28;19922;-74
2022/07/16 09:44:34;;;;;;;1.67;0.90;;;;;;;24.19;43.16;102334.28;5175162;28;20030;-75
2022/07/16 09:47:06;;;;;;;3.28;1.13;;;;;;;24.25;41.71;102338.91;5174888;28;20031;-75
2022/07/16 09:49:39;;;;;;;;;;;;;;;24.85;41.76;102337.88;5174550;28;20490;-75
2022/07/16 09:52:29;;;;;;;2.30;0.80;;;;;;;24.07;42.31;102352.66;5173601;28;19914;-75
2022/07/16 09:55:01;;;;;;;3.40;1.08;;;;;;;23.75;42.06;102351.09;5174815;28;20023;-74
2022/07/16 09:57:32;;;;;;;1.95;0.95;;;;;;;23.99;41.74;102347.38;5172205;28;20061;-75
2022/07/16 10:00:08;;;;;;;1.73;0.90;;;;;;;24.24;41.90;102347.94;5173898;28;20384;-74
2022/07/16 10:02:41;;;;;;;2.00;1.10;;;;;;;24.28;41.76;102352.78;5174780;28;20539;-74
2022/07/16 10:05:12;;;;;;;4.65;1.10;;;;;;;24.31;40.29;102356.91;5173643;28;20472;-74
2022/07/16 10:07:43;;;;;;;3.73;1.23;;;;;;;24.32;39.13;102347.88;5173348;28;20023;-75
2022/07/16 10:10:15;;;;;;;3.50;1.13;;;;;;;24.42;39.58;102364.50;5174340;28;20050;-75
2022/07/16 10:12:48;;;;;;;2.53;1.00;;;;;;;23.97;38.85;102358.25;5174590;28;20057;-75
2022/07/16 10:15:20;;;;;;;2.50;1.10;;;;;;;23.72;39.70;102357.66;5173855;28;20026;-74
2022/07/16 10:17:52;;;;;;;2.67;0.98;;;;;;;23.92;38.61;102360.66;5174425;28;20472;-74
2022/07/16 10:20:23;;;;;;;4.18;1.00;;;;;;;24.21;39.37;102370.59;5174390;28;20027;-74
2022/07/16 10:22:55;;;;;;;3.23;1.10;;;;;;;24.39;39.00;102366.72;5172936;28;20443;-74
2022/07/16 10:25:27;;;;;;;2.88;1.20;;;;;;;24.48;38.92;102358.44;5162925;28;20073;-74
2022/07/16 10:27:58;;;;;;;3.33;1.20;;;;;;;24.50;38.14;102372.44;5174245;28;20022;-74
2022/07/16 10:30:30;;;;;;;3.03;1.17;;;;;;;24.64;38.10;102370.78;5174257;28;20361;-75
2022/07/16 10:33:10;;;;;;;4.33;1.00;;;;;;;24.85;36.70;102372.72;5174089;28;20232;-74
2022/07/16 10:36:04;;;;;;;4.15;1.10;;;;;;;25.27;37.70;102365.78;5174398;28;20372;-74
2022/07/16 10:38:36;;;;;;;2.88;1.20;;;;;;;24.83;38.30;102381.97;5173211;28;20031;-75
2022/07/16 10:41:15;;;;;;;3.50;1.20;;;;;;;24.84;38.83;102376.41;5173003;28;20510;-74
2022/07/16 10:44:08;;;;;;;2.35;1.00;;;;;;;25.15;38.97;102384.22;5173928;28;20107;-74
2022/07/16 10:46:57;;;;;;;2.75;1.00;;;;;;;25.18;38.55;102381.16;5173783;28;20121;-75
2022/07/16 10:49:30;;;;;;;3.90;1.05;;;;;;;24.82;38.96;102385.66;5173158;28;20077;-74
2022/07/16 10:52:08;;;;;;;2.55;1.17;;;;;;;25.08;39.12;102386.00;5173778;28;20113;-74
2022/07/16 10:54:49;;;;;;;4.38;1.50;;;;;;;25.08;39.54;102382.44;5173956;28;20488;-74
2022/07/16 10:57:33;;;;;;;1.80;0.90;;;;;;;25.08;39.74;102386.00;5172560;28;20432;-74
2022/07/16 11:00:06;;;;;;;4.63;1.20;;;;;;;25.08;38.79;102388.66;5164892;28;20476;-74
2022/07/16 11:02:40;;;;;;;2.17;1.00;;;;;;;24.73;37.92;102392.97;5173725;28;20026;-74
2022/07/16 11:05:11;;;;;;;2.63;1.05;;;;;;;24.58;38.52;102394.81;5173669;28;20137;-74
2022/07/16 11:07:43;;;;;;;2.07;0.93;;;;;;;25.08;38.13;102385.13;5161725;28;20154;-74
2022/07/16 11:10:21;;;;;;;3.43;1.07;;;;;;;25.14;37.92;102387.09;5174054;28;20440;-74
2022/07/16 11:12:52;;;;;;;3.35;1.00;;;;;;;25.17;38.29;102384.03;5172415;28;20657;-74
2022/07/16 11:15:23;;;;;;;4.20;1.10;;;;;;;25.07;37.88;102386.97;5175182;28;20389;-75
2022/07/16 11:17:57;;;;;;;4.23;1.40;;;;;;;25.24;39.07;102396.50;5177786;28;20023;-74
2022/07/16 11:20:37;;;;;;;5.22;1.73;;;;;;;24.85;36.85;102398.66;5177485;28;20018;-74
2022/07/16 11:23:08;;;;;;;2.83;1.00;;;;;;;24.36;37.53;102402.75;5176899;28;20034;-75
2022/07/16 11:25:53;;;;;;;2.63;1.07;;;;;;;24.70;38.27;102388.81;5178111;28;20027;-74
2022/07/16 11:28:25;;;;;;;2.35;1.00;;;;;;;25.19;39.13;102396.25;5177599;28;20524;-74
2022/07/16 11:31:01;;;;;;;2.83;1.00;;;;;;;25.04;38.25;102403.47;5176756;28;20051;-74
2022/07/16 11:33:34;;;;;;;5.60;1.17;;;;;;;24.78;38.62;102405.81;5177435;28;20129;-74
2022/07/16 11:36:08;;;;;;;2.70;1.08;;;;;;;24.52;37.92;102415.97;5177584;28;20105;-74
2022/07/16 11:38:39;;;;;;;4.43;1.10;;;;;;;24.53;36.90;102403.41;5176853;28;20039;-75
2022/07/16 11:41:11;;;;;;;2.77;1.10;;;;;;;24.74;39.38;102394.66;5175226;28;20034;-74
2022/07/16 11:43:42;;;;;;;2.10;1.03;;;;;;;24.90;37.48;102396.28;5177225;28;20779;-75
2022/07/16 11:46:24;;;;;;;2.60;1.10;;;;;;;25.12;37.08;102403.38;5177087;28;20046;-74
2022/07/16 11:48:55;;;;;;;4.80;1.15;;;;;;;25.16;37.37;102393.13;5177305;28;20034;-75
2022/07/16 11:51:28;;;;;;;7.47;1.23;;;;;;;25.77;37.64;102390.00;5176089;28;20026;-75
2022/07/16 11:53:59;;;;;;;3.42;1.35;;;;;;;25.48;36.34;102394.47;5176402;28;20018;-74
2022/07/16 11:56:33;;;;;;;3.47;1.33;;;;;;;25.17;36.44;102395.59;5177495;28;20029;-75
2022/07/16 11:59:21;;;;;;;3.22;1.40;;;;;;;24.94;37.45;102405.59;5163493;28;20031;-74
2022/07/16 12:02:10;;;;;;;3.08;1.08;;;;;;;25.24;35.99;102406.41;5176344;28;20049;-75